sensor_id;sensor_type;location;lat;lon;timestamp;P1;durP1;ratioP1;P2;durP2;ratioP2
21630;SDS011;10977;46.802;11.952;2022-09-09T00:03:43;1.38;;;1.00;;
21630;SDS011;10977;46.802;11.952;2022-09-09T00:14:54;1.58;;;0.85;;
21630;SDS011;10977;46.802;11.952;2022-09-09T00:18:07;2.13;;;1.08;;
21630;SDS011;10977;46.802;11.952;2022-09-09T00:20:14;0.95;;;0.90;;
21630;SDS011;10977;46.802;11.952;2022-09-09T00:22:47;1.20;;;0.85;;
21630;SDS011;10977;46.802;11.952;2022-09-09T00:25:36;2.72;;;1.05;;
21630;SDS011;10977;46.802;11.952;2022-09-09T00:28:16;2.08;;;0.90;;
21630;SDS011;10977;46.802;11.952;2022-09-09T00:30:44;1.88;;;1.10;;
21630;SDS011;10977;46.802;11.952;2022-09-09T00:33:13;3.50;;;0.90;;
21630;SDS011;10977;46.802;11.952;2022-09-09T00:35:44;1.90;;;1.23;;
21630;SDS011;10977;46.802;11.952;2022-09-09T00:38:17;4.55;;;1.35;;
21630;SDS011;10977;46.802;11.952;2022-09-09T00:43:28;1.45;;;1.10;;
21630;SDS011;10977;46.802;11.952;2022-09-09T00:57:09;2.45;;;0.90;;
21630;SDS011;10977;46.802;11.952;2022-09-09T01:05:36;1.00;;;0.88;;
21630;SDS011;10977;46.802;11.952;2022-09-09T01:08:20;2.90;;;0.95;;
21630;SDS011;10977;46.802;11.952;2022-09-09T01:11:07;1.13;;;0.80;;
21630;SDS011;10977;46.802;11.952;2022-09-09T01:13:41;2.25;;;1.20;;
21630;SDS011;10977;46.802;11.952;2022-09-09T01:16:08;4.00;;;1.20;;
21630;SDS011;10977;46.802;11.952;2022-09-09T01:18:39;10.00;;;1.25;;
21630;SDS011;10977;46.802;11.952;2022-09-09T01:21:31;1.10;;;0.90;;
21630;SDS011;10977;46.802;11.952;2022-09-09T01:26:39;2.08;;;1.02;;
21630;SDS011;10977;46.802;11.952;2022-09-09T01:29:09;3.45;;;1.08;;
21630;SDS011;10977;46.802;11.952;2022-09-09T01:34:10;1.20;;;1.10;;
21630;SDS011;10977;46.802;11.952;2022-09-09T01:36:44;1.33;;;1.08;;
21630;SDS011;10977;46.802;11.952;2022-09-09T01:39:15;2.30;;;1.00;;
21630;SDS011;10977;46.802;11.952;2022-09-09T01:41:40;4.53;;;0.82;;
21630;SDS011;10977;46.802;11.952;2022-09-09T01:44:06;1.88;;;0.90;;
21630;SDS011;10977;46.802;11.952;2022-09-09T01:46:33;1.38;;;1.00;;
21630;SDS011;10977;46.802;11.952;2022-09-09T01:48:58;1.88;;;1.00;;
21630;SDS011;10977;46.802;11.952;2022-09-09T01:51:26;4.40;;;1.00;;
21630;SDS011;10977;46.802;11.952;2022-09-09T01:53:52;1.02;;;0.60;;
21630;SDS011;10977;46.802;11.952;2022-09-09T01:56:23;1.42;;;0.70;;
21630;SDS011;10977;46.802;11.952;2022-09-09T02:01:49;1.10;;;0.85;;
21630;SDS011;10977;46.802;11.952;2022-09-09T02:04:23;4.75;;;1.00;;
21630;SDS011;10977;46.802;11.952;2022-09-09T02:09:49;2.47;;;1.35;;
21630;SDS011;10977;46.802;11.952;2022-09-09T02:12:19;2.30;;;0.85;;
21630;SDS011;10977;46.802;11.952;2022-09-09T02:14:51;4.97;;;0.80;;
21630;SDS011;10977;46.802;11.952;2022-09-09T02:17:26;1.15;;;0.80;;
21630;SDS011;10977;46.802;11.952;2022-09-09T02:20:01;1.02;;;0.93;;
21630;SDS011;10977;46.802;11.952;2022-09-09T02:22:32;1.20;;;0.90;;
21630;SDS011;10977;46.802;11.952;2022-09-09T02:24:59;1.90;;;0.82;;
21630;SDS011;10977;46.802;11.952;2022-09-09T02:27:26;3.10;;;0.88;;
21630;SDS011;10977;46.802;11.952;2022-09-09T02:29:52;2.53;;;1.05;;
21630;SDS011;10977;46.802;11.952;2022-09-09T02:32:22;3.97;;;0.85;;
21630;SDS011;10977;46.802;11.952;2022-09-09T02:34:51;0.88;;;0.60;;
21630;SDS011;10977;46.802;11.952;2022-09-09T02:37:20;3.05;;;0.85;;
21630;SDS011;10977;46.802;11.952;2022-09-09T02:39:50;7.20;;;1.33;;
21630;SDS011;10977;46.802;11.952;2022-09-09T02:42:15;0.98;;;0.68;;
21630;SDS011;10977;46.802;11.952;2022-09-09T02:44:41;1.77;;;1.13;;
21630;SDS011;10977;46.802;11.952;2022-09-09T02:52:14;1.63;;;0.90;;
21630;SDS011;10977;46.802;11.952;2022-09-09T02:54:42;8.20;;;1.13;;
21630;SDS011;10977;46.802;11.952;2022-09-09T02:59:36;10.55;;;7.80;;
21630;SDS011;10977;46.802;11.952;2022-09-09T03:02:02;21.30;;;13.70;;
21630;SDS011;10977;46.802;11.952;2022-09-09T03:04:28;8.45;;;5.35;;
21630;SDS011;10977;46.802;11.952;2022-09-09T03:06:55;5.28;;;3.10;;
21630;SDS011;10977;46.802;11.952;2022-09-09T03:09:21;3.13;;;2.40;;
21630;SDS011;10977;46.802;11.952;2022-09-09T03:11:46;3.80;;;1.85;;
21630;SDS011;10977;46.802;11.952;2022-09-09T03:14:11;3.95;;;2.05;;
21630;SDS011;10977;46.802;11.952;2022-09-09T03:16:37;2.15;;;1.20;;
21630;SDS011;10977;46.802;11.952;2022-09-09T03:19:02;2.05;;;1.60;;
21630;SDS011;10977;46.802;11.952;2022-09-09T03:21:28;3.75;;;1.38;;
21630;SDS011;10977;46.802;11.952;2022-09-09T03:23:53;3.10;;;1.25;;
21630;SDS011;10977;46.802;11.952;2022-09-09T03:26:19;6.13;;;1.35;;
21630;SDS011;10977;46.802;11.952;2022-09-09T03:28:45;1.90;;;1.15;;
21630;SDS011;10977;46.802;11.952;2022-09-09T03:31:11;5.05;;;3.28;;
21630;SDS011;10977;46.802;11.952;2022-09-09T03:33:37;6.60;;;2.15;;
21630;SDS011;10977;46.802;11.952;2022-09-09T03:36:03;4.68;;;1.70;;
21630;SDS011;10977;46.802;11.952;2022-09-09T03:38:29;4.90;;;2.05;;
21630;SDS011;10977;46.802;11.952;2022-09-09T03:40:56;3.75;;;1.45;;
21630;SDS011;10977;46.802;11.952;2022-09-09T03:43:25;4.97;;;1.45;;
21630;SDS011;10977;46.802;11.952;2022-09-09T03:45:51;3.60;;;1.52;;
21630;SDS011;10977;46.802;11.952;2022-09-09T03:48:18;1.63;;;1.30;;
21630;SDS011;10977;46.802;11.952;2022-09-09T03:50:47;1.83;;;1.45;;
21630;SDS011;10977;46.802;11.952;2022-09-09T03:53:14;7.18;;;1.50;;
21630;SDS011;10977;46.802;11.952;2022-09-09T03:55:45;4.15;;;1.58;;
21630;SDS011;10977;46.802;11.952;2022-09-09T03:58:12;2.25;;;1.40;;
21630;SDS011;10977;46.802;11.952;2022-09-09T04:00:38;5.72;;;1.60;;
21630;SDS011;10977;46.802;11.952;2022-09-09T04:03:05;2.70;;;1.50;;
21630;SDS011;10977;46.802;11.952;2022-09-09T04:05:30;2.63;;;1.60;;
21630;SDS011;10977;46.802;11.952;2022-09-09T04:07:58;4.82;;;1.30;;
21630;SDS011;10977;46.802;11.952;2022-09-09T04:10:24;5.32;;;2.60;;
21630;SDS011;10977;46.802;11.952;2022-09-09T04:12:49;15.30;;;11.80;;
21630;SDS011;10977;46.802;11.952;2022-09-09T04:15:15;11.27;;;7.28;;
21630;SDS011;10977;46.802;11.952;2022-09-09T04:17:40;6.07;;;3.15;;
21630;SDS011;10977;46.802;11.952;2022-09-09T04:20:06;3.33;;;2.70;;
21630;SDS011;10977;46.802;11.952;2022-09-09T04:22:36;4.45;;;2.15;;
21630;SDS011;10977;46.802;11.952;2022-09-09T04:25:03;3.90;;;3.00;;
21630;SDS011;10977;46.802;11.952;2022-09-09T04:27:30;22.00;;;14.10;;
21630;SDS011;10977;46.802;11.952;2022-09-09T04:29:56;11.30;;;7.68;;
21630;SDS011;10977;46.802;11.952;2022-09-09T04:32:22;6.72;;;4.13;;
21630;SDS011;10977;46.802;11.952;2022-09-09T04:34:48;5.90;;;3.03;;
21630;SDS011;10977;46.802;11.952;2022-09-09T04:37:13;3.58;;;2.65;;
21630;SDS011;10977;46.802;11.952;2022-09-09T04:39:39;5.13;;;2.03;;
21630;SDS011;10977;46.802;11.952;2022-09-09T04:42:04;4.22;;;1.90;;
21630;SDS011;10977;46.802;11.952;2022-09-09T04:44:29;5.80;;;1.60;;
21630;SDS011;10977;46.802;11.952;2022-09-09T04:46:55;3.30;;;1.50;;
21630;SDS011;10977;46.802;11.952;2022-09-09T04:49:21;6.70;;;2.08;;
21630;SDS011;10977;46.802;11.952;2022-09-09T04:51:48;11.85;;;1.85;;
21630;SDS011;10977;46.802;11.952;2022-09-09T04:54:14;4.13;;;1.55;;
21630;SDS011;10977;46.802;11.952;2022-09-09T04:56:40;3.35;;;1.35;;
21630;SDS011;10977;46.802;11.952;2022-09-09T04:59:07;5.13;;;1.30;;
21630;SDS011;10977;46.802;11.952;2022-09-09T05:01:32;2.85;;;0.95;;
21630;SDS011;10977;46.802;11.952;2022-09-09T05:03:59;4.00;;;1.20;;
21630;SDS011;10977;46.802;11.952;2022-09-09T05:06:24;2.70;;;1.02;;
21630;SDS011;10977;46.802;11.952;2022-09-09T05:08:50;3.35;;;1.00;;
21630;SDS011;10977;46.802;11.952;2022-09-09T05:11:19;2.03;;;1.20;;
21630;SDS011;10977;46.802;11.952;2022-09-09T05:13:50;5.45;;;1.15;;
21630;SDS011;10977;46.802;11.952;2022-09-09T05:16:17;2.55;;;0.90;;
21630;SDS011;10977;46.802;11.952;2022-09-09T05:18:43;1.63;;;1.25;;
21630;SDS011;10977;46.802;11.952;2022-09-09T05:21:09;3.70;;;1.20;;
21630;SDS011;10977;46.802;11.952;2022-09-09T05:23:36;3.28;;;1.17;;
21630;SDS011;10977;46.802;11.952;2022-09-09T05:26:02;3.10;;;1.38;;
21630;SDS011;10977;46.802;11.952;2022-09-09T05:28:29;5.45;;;1.40;;
21630;SDS011;10977;46.802;11.952;2022-09-09T05:31:02;4.90;;;1.27;;
21630;SDS011;10977;46.802;11.952;2022-09-09T05:33:30;4.13;;;1.20;;
21630;SDS011;10977;46.802;11.952;2022-09-09T05:36:00;4.75;;;1.45;;
21630;SDS011;10977;46.802;11.952;2022-09-09T05:38:31;4.13;;;1.23;;
21630;SDS011;10977;46.802;11.952;2022-09-09T05:40:57;2.13;;;1.40;;
21630;SDS011;10977;46.802;11.952;2022-09-09T05:43:24;1.60;;;1.15;;
21630;SDS011;10977;46.802;11.952;2022-09-09T05:46:03;3.92;;;1.30;;
21630;SDS011;10977;46.802;11.952;2022-09-09T05:48:34;6.38;;;1.70;;
21630;SDS011;10977;46.802;11.952;2022-09-09T05:51:02;3.30;;;1.48;;
21630;SDS011;10977;46.802;11.952;2022-09-09T05:53:28;4.35;;;2.00;;
21630;SDS011;10977;46.802;11.952;2022-09-09T05:56:05;6.20;;;1.60;;
21630;SDS011;10977;46.802;11.952;2022-09-09T05:58:32;2.75;;;1.67;;
21630;SDS011;10977;46.802;11.952;2022-09-09T06:01:05;10.40;;;1.60;;
21630;SDS011;10977;46.802;11.952;2022-09-09T06:03:39;1.95;;;1.30;;
21630;SDS011;10977;46.802;11.952;2022-09-09T06:06:10;6.13;;;1.60;;
21630;SDS011;10977;46.802;11.952;2022-09-09T06:08:38;2.72;;;1.48;;
21630;SDS011;10977;46.802;11.952;2022-09-09T06:11:06;5.25;;;1.77;;
21630;SDS011;10977;46.802;11.952;2022-09-09T06:13:35;3.95;;;1.27;;
21630;SDS011;10977;46.802;11.952;2022-09-09T06:16:03;6.25;;;1.92;;
21630;SDS011;10977;46.802;11.952;2022-09-09T06:18:30;2.80;;;1.63;;
21630;SDS011;10977;46.802;11.952;2022-09-09T06:20:59;2.55;;;1.73;;
21630;SDS011;10977;46.802;11.952;2022-09-09T06:23:27;1.80;;;1.33;;
21630;SDS011;10977;46.802;11.952;2022-09-09T06:26:06;6.00;;;1.60;;
21630;SDS011;10977;46.802;11.952;2022-09-09T06:28:34;4.28;;;1.20;;
21630;SDS011;10977;46.802;11.952;2022-09-09T06:31:02;2.67;;;1.17;;
21630;SDS011;10977;46.802;11.952;2022-09-09T06:33:33;1.95;;;1.17;;
21630;SDS011;10977;46.802;11.952;2022-09-09T06:36:00;3.08;;;1.15;;
21630;SDS011;10977;46.802;11.952;2022-09-09T06:38:27;2.95;;;1.25;;
21630;SDS011;10977;46.802;11.952;2022-09-09T06:40:53;2.00;;;1.10;;
21630;SDS011;10977;46.802;11.952;2022-09-09T06:43:20;2.78;;;1.15;;
21630;SDS011;10977;46.802;11.952;2022-09-09T06:45:59;3.30;;;1.40;;
21630;SDS011;10977;46.802;11.952;2022-09-09T06:48:26;1.95;;;1.65;;
21630;SDS011;10977;46.802;11.952;2022-09-09T06:51:06;3.05;;;1.60;;
21630;SDS011;10977;46.802;11.952;2022-09-09T06:53:33;3.47;;;1.52;;
21630;SDS011;10977;46.802;11.952;2022-09-09T06:56:00;3.90;;;1.70;;
21630;SDS011;10977;46.802;11.952;2022-09-09T06:58:27;2.10;;;1.20;;
21630;SDS011;10977;46.802;11.952;2022-09-09T07:01:01;3.67;;;1.40;;
21630;SDS011;10977;46.802;11.952;2022-09-09T07:03:32;5.25;;;1.80;;
21630;SDS011;10977;46.802;11.952;2022-09-09T07:05:58;4.00;;;1.40;;
21630;SDS011;10977;46.802;11.952;2022-09-09T07:08:24;3.85;;;1.70;;
21630;SDS011;10977;46.802;11.952;2022-09-09T07:10:50;2.50;;;1.75;;
21630;SDS011;10977;46.802;11.952;2022-09-09T07:13:19;2.00;;;1.40;;
21630;SDS011;10977;46.802;11.952;2022-09-09T07:15:51;6.10;;;1.52;;
21630;SDS011;10977;46.802;11.952;2022-09-09T07:18:17;3.10;;;1.98;;
21630;SDS011;10977;46.802;11.952;2022-09-09T07:20:42;3.70;;;1.42;;
21630;SDS011;10977;46.802;11.952;2022-09-09T07:23:08;4.80;;;1.40;;
21630;SDS011;10977;46.802;11.952;2022-09-09T07:25:33;4.05;;;1.80;;
21630;SDS011;10977;46.802;11.952;2022-09-09T07:27:58;2.75;;;1.50;;
21630;SDS011;10977;46.802;11.952;2022-09-09T07:30:24;3.20;;;1.60;;
21630;SDS011;10977;46.802;11.952;2022-09-09T07:32:50;5.20;;;1.70;;
21630;SDS011;10977;46.802;11.952;2022-09-09T07:35:16;6.70;;;1.48;;
21630;SDS011;10977;46.802;11.952;2022-09-09T07:37:42;4.85;;;1.58;;
21630;SDS011;10977;46.802;11.952;2022-09-09T07:40:07;6.97;;;2.40;;
21630;SDS011;10977;46.802;11.952;2022-09-09T07:42:33;3.45;;;1.40;;
21630;SDS011;10977;46.802;11.952;2022-09-09T07:44:58;7.85;;;1.48;;
21630;SDS011;10977;46.802;11.952;2022-09-09T07:47:24;2.95;;;1.60;;
21630;SDS011;10977;46.802;11.952;2022-09-09T07:49:49;2.22;;;1.58;;
21630;SDS011;10977;46.802;11.952;2022-09-09T07:52:15;2.45;;;1.70;;
21630;SDS011;10977;46.802;11.952;2022-09-09T07:54:41;2.03;;;1.50;;
21630;SDS011;10977;46.802;11.952;2022-09-09T07:57:06;3.95;;;1.35;;
21630;SDS011;10977;46.802;11.952;2022-09-09T07:59:32;5.15;;;1.65;;
21630;SDS011;10977;46.802;11.952;2022-09-09T08:01:58;4.85;;;1.50;;
21630;SDS011;10977;46.802;11.952;2022-09-09T08:04:24;4.78;;;1.67;;
21630;SDS011;10977;46.802;11.952;2022-09-09T08:06:55;3.35;;;1.73;;
21630;SDS011;10977;46.802;11.952;2022-09-09T08:09:23;3.00;;;1.23;;
21630;SDS011;10977;46.802;11.952;2022-09-09T08:11:51;2.22;;;1.48;;
21630;SDS011;10977;46.802;11.952;2022-09-09T08:14:17;7.95;;;1.60;;
21630;SDS011;10977;46.802;11.952;2022-09-09T08:16:44;3.75;;;1.33;;
21630;SDS011;10977;46.802;11.952;2022-09-09T08:19:11;1.55;;;1.45;;
21630;SDS011;10977;46.802;11.952;2022-09-09T08:21:38;5.13;;;1.80;;
21630;SDS011;10977;46.802;11.952;2022-09-09T08:24:05;2.00;;;1.23;;
21630;SDS011;10977;46.802;11.952;2022-09-09T08:26:40;2.47;;;1.45;;
21630;SDS011;10977;46.802;11.952;2022-09-09T08:29:07;2.58;;;1.10;;
21630;SDS011;10977;46.802;11.952;2022-09-09T08:31:42;2.33;;;1.17;;
21630;SDS011;10977;46.802;11.952;2022-09-09T08:34:13;1.88;;;0.90;;
21630;SDS011;10977;46.802;11.952;2022-09-09T08:36:40;1.48;;;0.93;;
21630;SDS011;10977;46.802;11.952;2022-09-09T08:39:07;1.38;;;0.95;;
21630;SDS011;10977;46.802;11.952;2022-09-09T08:46:55;3.08;;;0.88;;
21630;SDS011;10977;46.802;11.952;2022-09-09T08:53:01;2.88;;;1.00;;
21630;SDS011;10977;46.802;11.952;2022-09-09T08:58:29;1.17;;;1.00;;
21630;SDS011;10977;46.802;11.952;2022-09-09T09:11:24;3.58;;;1.20;;
21630;SDS011;10977;46.802;11.952;2022-09-09T09:13:58;2.15;;;0.88;;
21630;SDS011;10977;46.802;11.952;2022-09-09T09:19:08;1.20;;;0.75;;
21630;SDS011;10977;46.802;11.952;2022-09-09T09:21:43;0.93;;;0.60;;
21630;SDS011;10977;46.802;11.952;2022-09-09T09:26:44;1.42;;;1.00;;
21630;SDS011;10977;46.802;11.952;2022-09-09T09:29:11;0.90;;;0.50;;
21630;SDS011;10977;46.802;11.952;2022-09-09T09:31:41;1.55;;;0.80;;
21630;SDS011;10977;46.802;11.952;2022-09-09T09:34:19;1.20;;;0.75;;
21630;SDS011;10977;46.802;11.952;2022-09-09T09:36:46;1.48;;;0.60;;
21630;SDS011;10977;46.802;11.952;2022-09-09T09:39:25;2.47;;;0.60;;
21630;SDS011;10977;46.802;11.952;2022-09-09T09:41:53;3.45;;;0.70;;
21630;SDS011;10977;46.802;11.952;2022-09-09T09:44:27;1.50;;;0.85;;
21630;SDS011;10977;46.802;11.952;2022-09-09T09:47:05;0.82;;;0.70;;
21630;SDS011;10977;46.802;11.952;2022-09-09T09:50:02;2.53;;;0.80;;
21630;SDS011;10977;46.802;11.952;2022-09-09T09:52:28;1.77;;;0.80;;
21630;SDS011;10977;46.802;11.952;2022-09-09T09:54:55;1.08;;;0.90;;
21630;SDS011;10977;46.802;11.952;2022-09-09T09:57:29;2.72;;;0.90;;
21630;SDS011;10977;46.802;11.952;2022-09-09T10:00:15;2.28;;;1.20;;
21630;SDS011;10977;46.802;11.952;2022-09-09T10:02:43;2.05;;;1.10;;
21630;SDS011;10977;46.802;11.952;2022-09-09T10:05:16;2.00;;;0.88;;
21630;SDS011;10977;46.802;11.952;2022-09-09T10:16:01;2.35;;;1.50;;
21630;SDS011;10977;46.802;11.952;2022-09-09T10:18:47;1.75;;;1.50;;
21630;SDS011;10977;46.802;11.952;2022-09-09T10:35:03;2.75;;;1.00;;
21630;SDS011;10977;46.802;11.952;2022-09-09T10:56:35;2.72;;;1.88;;
21630;SDS011;10977;46.802;11.952;2022-09-09T10:59:14;1.73;;;1.30;;
21630;SDS011;10977;46.802;11.952;2022-09-09T11:01:44;1.98;;;1.30;;
21630;SDS011;10977;46.802;11.952;2022-09-09T11:04:20;1.25;;;1.15;;
21630;SDS011;10977;46.802;11.952;2022-09-09T11:06:50;1.67;;;1.17;;
21630;SDS011;10977;46.802;11.952;2022-09-09T11:09:22;2.67;;;1.25;;
21630;SDS011;10977;46.802;11.952;2022-09-09T11:11:52;1.35;;;1.10;;
21630;SDS011;10977;46.802;11.952;2022-09-09T11:21:48;1.92;;;0.98;;
21630;SDS011;10977;46.802;11.952;2022-09-09T11:26:55;1.13;;;0.93;;
21630;SDS011;10977;46.802;11.952;2022-09-09T11:29:32;1.23;;;1.00;;
21630;SDS011;10977;46.802;11.952;2022-09-09T11:32:17;3.28;;;1.20;;
21630;SDS011;10977;46.802;11.952;2022-09-09T11:40:17;3.13;;;1.15;;
21630;SDS011;10977;46.802;11.952;2022-09-09T11:42:46;2.75;;;1.48;;
21630;SDS011;10977;46.802;11.952;2022-09-09T11:47:56;3.00;;;1.00;;
21630;SDS011;10977;46.802;11.952;2022-09-09T11:52:49;3.05;;;1.10;;
21630;SDS011;10977;46.802;11.952;2022-09-09T11:58:01;4.10;;;3.25;;
21630;SDS011;10977;46.802;11.952;2022-09-09T12:00:38;4.03;;;2.00;;
21630;SDS011;10977;46.802;11.952;2022-09-09T12:06:11;1.83;;;1.20;;
21630;SDS011;10977;46.802;11.952;2022-09-09T12:08:42;2.22;;;1.20;;
21630;SDS011;10977;46.802;11.952;2022-09-09T12:11:10;2.10;;;1.70;;
21630;SDS011;10977;46.802;11.952;2022-09-09T12:13:36;1.63;;;1.23;;
21630;SDS011;10977;46.802;11.952;2022-09-09T12:16:02;1.48;;;1.35;;
21630;SDS011;10977;46.802;11.952;2022-09-09T12:18:34;2.90;;;1.80;;
21630;SDS011;10977;46.802;11.952;2022-09-09T12:24:06;2.90;;;2.17;;
21630;SDS011;10977;46.802;11.952;2022-09-09T12:26:37;3.42;;;1.83;;
21630;SDS011;10977;46.802;11.952;2022-09-09T12:31:59;1.90;;;1.52;;
21630;SDS011;10977;46.802;11.952;2022-09-09T12:42:48;2.90;;;1.17;;
21630;SDS011;10977;46.802;11.952;2022-09-09T12:45:24;1.75;;;1.20;;
21630;SDS011;10977;46.802;11.952;2022-09-09T12:47:56;1.30;;;1.00;;
21630;SDS011;10977;46.802;11.952;2022-09-09T12:50:26;2.92;;;1.20;;
21630;SDS011;10977;46.802;11.952;2022-09-09T12:52:55;1.65;;;1.25;;
21630;SDS011;10977;46.802;11.952;2022-09-09T12:55:30;1.42;;;1.05;;
21630;SDS011;10977;46.802;11.952;2022-09-09T12:58:03;2.92;;;1.02;;
21630;SDS011;10977;46.802;11.952;2022-09-09T13:00:31;2.35;;;1.23;;
21630;SDS011;10977;46.802;11.952;2022-09-09T13:02:58;2.40;;;1.10;;
21630;SDS011;10977;46.802;11.952;2022-09-09T13:05:27;2.25;;;1.40;;
21630;SDS011;10977;46.802;11.952;2022-09-09T13:08:02;1.27;;;1.15;;
21630;SDS011;10977;46.802;11.952;2022-09-09T13:10:31;1.42;;;1.10;;
21630;SDS011;10977;46.802;11.952;2022-09-09T13:13:00;1.42;;;0.85;;
21630;SDS011;10977;46.802;11.952;2022-09-09T13:15:27;2.05;;;1.23;;
21630;SDS011;10977;46.802;11.952;2022-09-09T13:17:55;1.83;;;1.10;;
21630;SDS011;10977;46.802;11.952;2022-09-09T13:20:25;1.42;;;1.20;;
21630;SDS011;10977;46.802;11.952;2022-09-09T13:22:52;1.05;;;0.77;;
21630;SDS011;10977;46.802;11.952;2022-09-09T13:25:21;1.02;;;0.93;;
21630;SDS011;10977;46.802;11.952;2022-09-09T13:27:51;1.90;;;1.10;;
21630;SDS011;10977;46.802;11.952;2022-09-09T13:30:26;2.78;;;1.20;;
21630;SDS011;10977;46.802;11.952;2022-09-09T13:38:27;1.30;;;1.10;;
21630;SDS011;10977;46.802;11.952;2022-09-09T13:40:58;2.85;;;1.20;;
21630;SDS011;10977;46.802;11.952;2022-09-09T13:43:34;1.05;;;0.95;;
21630;SDS011;10977;46.802;11.952;2022-09-09T13:46:22;1.75;;;1.17;;
21630;SDS011;10977;46.802;11.952;2022-09-09T13:48:56;2.33;;;0.90;;
21630;SDS011;10977;46.802;11.952;2022-09-09T13:51:27;1.20;;;0.95;;
21630;SDS011;10977;46.802;11.952;2022-09-09T13:53:53;1.75;;;1.13;;
21630;SDS011;10977;46.802;11.952;2022-09-09T13:56:19;2.38;;;1.15;;
21630;SDS011;10977;46.802;11.952;2022-09-09T13:58:44;2.72;;;1.10;;
21630;SDS011;10977;46.802;11.952;2022-09-09T14:01:10;1.85;;;0.95;;
21630;SDS011;10977;46.802;11.952;2022-09-09T14:03:36;1.13;;;1.00;;
21630;SDS011;10977;46.802;11.952;2022-09-09T14:06:02;2.97;;;0.95;;
21630;SDS011;10977;46.802;11.952;2022-09-09T14:08:27;1.30;;;1.08;;
21630;SDS011;10977;46.802;11.952;2022-09-09T14:11:01;1.73;;;0.90;;
21630;SDS011;10977;46.802;11.952;2022-09-09T14:13:30;1.27;;;0.75;;
21630;SDS011;10977;46.802;11.952;2022-09-09T14:15:55;0.93;;;0.80;;
21630;SDS011;10977;46.802;11.952;2022-09-09T14:18:21;4.78;;;1.45;;
21630;SDS011;10977;46.802;11.952;2022-09-09T14:20:48;1.73;;;0.90;;
21630;SDS011;10977;46.802;11.952;2022-09-09T14:23:15;0.98;;;0.95;;
21630;SDS011;10977;46.802;11.952;2022-09-09T14:25:42;4.40;;;1.00;;
21630;SDS011;10977;46.802;11.952;2022-09-09T14:28:09;6.95;;;4.18;;
21630;SDS011;10977;46.802;11.952;2022-09-09T14:30:37;2.20;;;1.70;;
21630;SDS011;10977;46.802;11.952;2022-09-09T14:33:06;3.15;;;1.35;;
21630;SDS011;10977;46.802;11.952;2022-09-09T14:35:33;1.20;;;1.10;;
21630;SDS011;10977;46.802;11.952;2022-09-09T14:37:59;1.45;;;0.88;;
21630;SDS011;10977;46.802;11.952;2022-09-09T14:40:25;0.75;;;0.75;;
21630;SDS011;10977;46.802;11.952;2022-09-09T14:42:52;1.48;;;0.90;;
21630;SDS011;10977;46.802;11.952;2022-09-09T14:45:17;0.68;;;0.68;;
21630;SDS011;10977;46.802;11.952;2022-09-09T14:47:43;0.88;;;0.70;;
21630;SDS011;10977;46.802;11.952;2022-09-09T14:50:08;1.02;;;0.70;;
21630;SDS011;10977;46.802;11.952;2022-09-09T14:52:34;3.35;;;0.75;;
21630;SDS011;10977;46.802;11.952;2022-09-09T14:54:59;0.55;;;0.55;;
21630;SDS011;10977;46.802;11.952;2022-09-09T14:57:24;1.25;;;0.73;;
21630;SDS011;10977;46.802;11.952;2022-09-09T14:59:50;0.65;;;0.60;;
21630;SDS011;10977;46.802;11.952;2022-09-09T15:02:15;0.50;;;0.50;;
21630;SDS011;10977;46.802;11.952;2022-09-09T15:04:41;0.90;;;0.70;;
21630;SDS011;10977;46.802;11.952;2022-09-09T15:07:06;0.73;;;0.73;;
21630;SDS011;10977;46.802;11.952;2022-09-09T15:09:32;1.63;;;0.60;;
21630;SDS011;10977;46.802;11.952;2022-09-09T15:11:57;1.73;;;1.23;;
21630;SDS011;10977;46.802;11.952;2022-09-09T15:14:22;1.75;;;0.80;;
21630;SDS011;10977;46.802;11.952;2022-09-09T15:16:48;1.20;;;0.70;;
21630;SDS011;10977;46.802;11.952;2022-09-09T15:19:13;1.05;;;0.57;;
21630;SDS011;10977;46.802;11.952;2022-09-09T15:21:39;1.70;;;0.65;;
21630;SDS011;10977;46.802;11.952;2022-09-09T15:24:04;0.70;;;0.70;;
21630;SDS011;10977;46.802;11.952;2022-09-09T15:26:33;1.30;;;0.60;;
21630;SDS011;10977;46.802;11.952;2022-09-09T15:28:59;0.82;;;0.60;;
21630;SDS011;10977;46.802;11.952;2022-09-09T15:31:26;1.58;;;0.60;;
21630;SDS011;10977;46.802;11.952;2022-09-09T15:33:57;0.73;;;0.57;;
21630;SDS011;10977;46.802;11.952;2022-09-09T15:36:28;0.85;;;0.40;;
21630;SDS011;10977;46.802;11.952;2022-09-09T15:39:01;2.78;;;0.60;;
21630;SDS011;10977;46.802;11.952;2022-09-09T15:41:28;1.02;;;0.50;;
21630;SDS011;10977;46.802;11.952;2022-09-09T15:43:56;0.60;;;0.40;;
21630;SDS011;10977;46.802;11.952;2022-09-09T15:46:23;1.05;;;0.52;;
21630;SDS011;10977;46.802;11.952;2022-09-09T15:48:56;1.38;;;1.13;;
21630;SDS011;10977;46.802;11.952;2022-09-09T15:51:23;1.23;;;1.10;;
21630;SDS011;10977;46.802;11.952;2022-09-09T15:53:54;1.90;;;1.40;;
21630;SDS011;10977;46.802;11.952;2022-09-09T15:56:21;3.70;;;2.03;;
21630;SDS011;10977;46.802;11.952;2022-09-09T15:58:47;3.00;;;1.25;;
21630;SDS011;10977;46.802;11.952;2022-09-09T16:01:12;1.13;;;0.90;;
21630;SDS011;10977;46.802;11.952;2022-09-09T16:03:39;1.10;;;0.70;;
21630;SDS011;10977;46.802;11.952;2022-09-09T16:06:11;2.00;;;1.00;;
21630;SDS011;10977;46.802;11.952;2022-09-09T16:08:39;1.52;;;0.80;;
21630;SDS011;10977;46.802;11.952;2022-09-09T16:11:07;1.38;;;0.70;;
21630;SDS011;10977;46.802;11.952;2022-09-09T16:13:35;1.33;;;0.90;;
21630;SDS011;10977;46.802;11.952;2022-09-09T16:16:02;1.70;;;0.90;;
21630;SDS011;10977;46.802;11.952;2022-09-09T16:18:39;2.25;;;1.48;;
21630;SDS011;10977;46.802;11.952;2022-09-09T16:21:07;2.25;;;1.25;;
21630;SDS011;10977;46.802;11.952;2022-09-09T16:23:33;3.65;;;1.58;;
21630;SDS011;10977;46.802;11.952;2022-09-09T16:26:01;3.15;;;1.10;;
21630;SDS011;10977;46.802;11.952;2022-09-09T16:28:27;3.20;;;1.02;;
21630;SDS011;10977;46.802;11.952;2022-09-09T16:30:53;2.05;;;1.20;;
21630;SDS011;10977;46.802;11.952;2022-09-09T16:33:18;1.55;;;1.20;;
21630;SDS011;10977;46.802;11.952;2022-09-09T16:35:44;1.85;;;1.35;;
21630;SDS011;10977;46.802;11.952;2022-09-09T16:38:09;1.38;;;1.25;;
21630;SDS011;10977;46.802;11.952;2022-09-09T16:40:35;2.33;;;1.30;;
21630;SDS011;10977;46.802;11.952;2022-09-09T17:03:25;3.95;;;2.78;;
21630;SDS011;10977;46.802;11.952;2022-09-09T17:05:50;4.03;;;2.42;;
21630;SDS011;10977;46.802;11.952;2022-09-09T17:08:16;4.38;;;1.83;;
21630;SDS011;10977;46.802;11.952;2022-09-09T17:10:41;3.55;;;1.70;;
21630;SDS011;10977;46.802;11.952;2022-09-09T17:13:07;2.15;;;1.50;;
21630;SDS011;10977;46.802;11.952;2022-09-09T17:15:32;5.55;;;1.48;;
21630;SDS011;10977;46.802;11.952;2022-09-09T17:17:59;2.17;;;1.75;;
21630;SDS011;10977;46.802;11.952;2022-09-09T17:20:25;2.08;;;1.60;;
21630;SDS011;10977;46.802;11.952;2022-09-09T17:22:50;2.03;;;1.70;;
21630;SDS011;10977;46.802;11.952;2022-09-09T17:25:16;2.83;;;1.20;;
21630;SDS011;10977;46.802;11.952;2022-09-09T17:27:42;2.10;;;1.50;;
21630;SDS011;10977;46.802;11.952;2022-09-09T17:30:07;1.50;;;1.40;;
21630;SDS011;10977;46.802;11.952;2022-09-09T17:32:34;7.55;;;2.20;;
21630;SDS011;10977;46.802;11.952;2022-09-09T17:35:00;2.88;;;1.88;;
21630;SDS011;10977;46.802;11.952;2022-09-09T17:37:26;2.60;;;1.70;;
21630;SDS011;10977;46.802;11.952;2022-09-09T17:39:51;6.90;;;2.08;;
21630;SDS011;10977;46.802;11.952;2022-09-09T17:42:17;6.38;;;4.10;;
21630;SDS011;10977;46.802;11.952;2022-09-09T17:44:43;7.22;;;4.25;;
21630;SDS011;10977;46.802;11.952;2022-09-09T17:47:08;6.60;;;3.95;;